sensor_id;sensor_type;location;lat;lon;timestamp;pressure;altitude;pressure_sealevel;temperature;humidity
74895;BME280;63447;49.446;8.666;2023-10-31T00:00:54;98749.50;;;12.27;100.00
74895;BME280;63447;49.446;8.666;2023-10-31T00:03:21;98763.38;;;12.34;100.00
74895;BME280;63447;49.446;8.666;2023-10-31T00:05:47;98759.00;;;12.30;100.00
74895;BME280;63447;49.446;8.666;2023-10-31T00:08:12;98736.31;;;12.10;100.00
74895;BME280;63447;49.446;8.666;2023-10-31T00:10:40;98764.50;;;12.26;100.00
74895;BME280;63447;49.446;8.666;2023-10-31T00:13:09;98775.94;;;12.24;100.00
74895;BME280;63447;49.446;8.666;2023-10-31T00:15:42;98769.19;;;12.18;100.00
74895;BME280;63447;49.446;8.666;2023-10-31T00:18:12;98756.78;;;12.02;100.00
74895;BME280;63447;49.446;8.666;2023-10-31T00:20:40;98769.88;;;12.08;100.00
74895;BME280;63447;49.446;8.666;2023-10-31T00:23:05;98763.06;;;11.99;100.00
74895;BME280;63447;49.446;8.666;2023-10-31T00:25:31;98771.34;;;11.99;100.00
74895;BME280;63447;49.446;8.666;2023-10-31T00:27:56;98779.66;;;11.99;100.00
74895;BME280;63447;49.446;8.666;2023-10-31T00:30:21;98770.47;;;11.87;100.00
74895;BME280;63447;49.446;8.666;2023-10-31T00:32:49;98790.66;;;11.92;100.00
74895;BME280;63447;49.446;8.666;2023-10-31T00:35:17;98771.41;;;11.65;100.00
74895;BME280;63447;49.446;8.666;2023-10-31T00:37:45;98787.22;;;11.72;100.00
74895;BME280;63447;49.446;8.666;2023-10-31T00:40:10;98796.69;;;11.67;100.00
74895;BME280;63447;49.446;8.666;2023-10-31T00:42:39;98796.31;;;11.69;100.00
74895;BME280;63447;49.446;8.666;2023-10-31T00:45:06;98801.19;;;11.49;100.00
74895;BME280;63447;49.446;8.666;2023-10-31T00:47:34;98815.13;;;11.60;99.92
74895;BME280;63447;49.446;8.666;2023-10-31T00:50:02;98818.69;;;11.60;99.50
74895;BME280;63447;49.446;8.666;2023-10-31T00:52:28;98809.22;;;11.61;99.03
74895;BME280;63447;49.446;8.666;2023-10-31T00:54:56;98806.88;;;11.63;99.36
74895;BME280;63447;49.446;8.666;2023-10-31T00:57:21;98796.41;;;11.46;100.00
74895;BME280;63447;49.446;8.666;2023-10-31T00:59:46;98813.06;;;11.53;100.00
74895;BME280;63447;49.446;8.666;2023-10-31T01:02:12;98800.75;;;11.47;100.00
74895;BME280;63447;49.446;8.666;2023-10-31T01:04:37;98806.28;;;11.47;100.00
74895;BME280;63447;49.446;8.666;2023-10-31T01:07:03;98785.25;;;11.35;100.00
74895;BME280;63447;49.446;8.666;2023-10-31T01:09:30;98794.69;;;11.34;100.00
74895;BME280;63447;49.446;8.666;2023-10-31T01:11:56;98772.47;;;11.23;100.00
74895;BME280;63447;49.446;8.666;2023-10-31T01:14:28;98786.78;;;11.33;100.00
74895;BME280;63447;49.446;8.666;2023-10-31T01:16:58;98808.25;;;11.46;100.00
74895;BME280;63447;49.446;8.666;2023-10-31T01:19:26;98795.16;;;11.40;100.00
74895;BME280;63447;49.446;8.666;2023-10-31T01:21:56;98803.47;;;11.40;100.00
74895;BME280;63447;49.446;8.666;2023-10-31T01:24:21;98795.06;;;11.33;100.00
74895;BME280;63447;49.446;8.666;2023-10-31T01:26:48;98782.72;;;11.23;100.00
74895;BME280;63447;49.446;8.666;2023-10-31T01:29:18;98818.97;;;11.21;100.00
74895;BME280;63447;49.446;8.666;2023-10-31T01:31:44;98814.19;;;11.15;100.00
74895;BME280;63447;49.446;8.666;2023-10-31T01:34:09;98801.50;;;11.10;100.00
74895;BME280;63447;49.446;8.666;2023-10-31T01:36:34;98809.34;;;11.08;100.00
74895;BME280;63447;49.446;8.666;2023-10-31T01:39:00;98810.78;;;10.99;100.00
74895;BME280;63447;49.446;8.666;2023-10-31T01:41:28;98807.59;;;10.97;100.00
74895;BME280;63447;49.446;8.666;2023-10-31T01:43:53;98819.47;;;11.01;100.00
74895;BME280;63447;49.446;8.666;2023-10-31T01:46:18;98795.94;;;10.80;100.00
74895;BME280;63447;49.446;8.666;2023-10-31T01:48:46;98816.16;;;10.88;100.00
74895;BME280;63447;49.446;8.666;2023-10-31T01:51:12;98787.59;;;10.77;100.00
74895;BME280;63447;49.446;8.666;2023-10-31T01:53:42;98818.13;;;10.87;100.00
74895;BME280;63447;49.446;8.666;2023-10-31T01:56:12;98818.00;;;10.80;100.00
74895;BME280;63447;49.446;8.666;2023-10-31T01:58:38;98821.19;;;10.82;100.00
74895;BME280;63447;49.446;8.666;2023-10-31T02:01:04;98808.88;;;10.76;100.00
74895;BME280;63447;49.446;8.666;2023-10-31T02:03:31;98835.47;;;10.88;100.00
74895;BME280;63447;49.446;8.666;2023-10-31T02:05:58;98825.91;;;10.82;100.00
74895;BME280;63447;49.446;8.666;2023-10-31T02:08:26;98829.72;;;10.74;100.00
74895;BME280;63447;49.446;8.666;2023-10-31T02:10:55;98825.25;;;10.66;100.00
74895;BME280;63447;49.446;8.666;2023-10-31T02:13:22;98841.63;;;10.78;100.00
74895;BME280;63447;49.446;8.666;2023-10-31T02:15:50;98813.69;;;10.57;100.00
74895;BME280;63447;49.446;8.666;2023-10-31T02:18:16;98845.16;;;10.78;100.00
74895;BME280;63447;49.446;8.666;2023-10-31T02:20:41;98839.59;;;10.75;100.00
74895;BME280;63447;49.446;8.666;2023-10-31T02:23:09;98841.56;;;10.74;100.00
74895;BME280;63447;49.446;8.666;2023-10-31T02:25:37;98848.72;;;10.79;100.00
74895;BME280;63447;49.446;8.666;2023-10-31T02:28:04;98836.19;;;10.59;100.00
74895;BME280;63447;49.446;8.666;2023-10-31T02:30:36;98860.72;;;10.64;100.00
74895;BME280;63447;49.446;8.666;2023-10-31T02:33:02;98854.75;;;10.62;100.00
74895;BME280;63447;49.446;8.666;2023-10-31T02:35:27;98864.41;;;10.75;100.00
74895;BME280;63447;49.446;8.666;2023-10-31T02:37:53;98858.78;;;10.68;100.00
74895;BME280;63447;49.446;8.666;2023-10-31T02:40:21;98860.59;;;10.57;100.00
74895;BME280;63447;49.446;8.666;2023-10-31T02:42:51;98873.72;;;10.63;100.00
74895;BME280;63447;49.446;8.666;2023-10-31T02:45:21;98886.84;;;10.73;100.00
74895;BME280;63447;49.446;8.666;2023-10-31T02:47:48;98877.34;;;10.71;99.69
74895;BME280;63447;49.446;8.666;2023-10-31T02:50:16;98879.69;;;10.69;100.00
74895;BME280;63447;49.446;8.666;2023-10-31T02:52:41;98883.94;;;10.63;100.00
74895;BME280;63447;49.446;8.666;2023-10-31T02:55:09;98873.34;;;10.65;100.00
74895;BME280;63447;49.446;8.666;2023-10-31T02:57:34;98875.66;;;10.63;100.00
74895;BME280;63447;49.446;8.666;2023-10-31T03:00:04;98864.63;;;10.63;100.00
74895;BME280;63447;49.446;8.666;2023-10-31T03:02:32;98890.91;;;10.79;100.00
74895;BME280;63447;49.446;8.666;2023-10-31T03:04:57;98886.25;;;10.83;100.00
74895;BME280;63447;49.446;8.666;2023-10-31T03:07:23;98884.22;;;10.80;100.00
74895;BME280;63447;49.446;8.666;2023-10-31T03:09:48;98890.34;;;10.70;100.00
74895;BME280;63447;49.446;8.666;2023-10-31T03:12:18;98889.13;;;10.68;100.00
74895;BME280;63447;49.446;8.666;2023-10-31T03:14:46;98888.69;;;10.66;100.00
74895;BME280;63447;49.446;8.666;2023-10-31T03:17:13;98876.56;;;10.70;100.00
74895;BME280;63447;49.446;8.666;2023-10-31T03:19:41;98890.41;;;10.74;100.00
74895;BME280;63447;49.446;8.666;2023-10-31T03:22:14;98889.47;;;10.63;100.00
74895;BME280;63447;49.446;8.666;2023-10-31T03:24:39;98894.84;;;10.56;100.00
74895;BME280;63447;49.446;8.666;2023-10-31T03:27:05;98901.97;;;10.57;100.00
74895;BME280;63447;49.446;8.666;2023-10-31T03:29:32;98895.94;;;10.51;100.00
74895;BME280;63447;49.446;8.666;2023-10-31T03:31:58;98887.97;;;10.46;100.00
74895;BME280;63447;49.446;8.666;2023-10-31T03:34:23;98916.19;;;10.59;100.00
74895;BME280;63447;49.446;8.666;2023-10-31T03:36:48;98917.22;;;10.50;100.00
74895;BME280;63447;49.446;8.666;2023-10-31T03:39:14;98903.97;;;10.37;100.00
74895;BME280;63447;49.446;8.666;2023-10-31T03:41:39;98914.22;;;10.36;100.00
74895;BME280;63447;49.446;8.666;2023-10-31T03:44:07;98925.78;;;10.45;100.00
74895;BME280;63447;49.446;8.666;2023-10-31T03:46:32;98908.38;;;10.41;100.00
74895;BME280;63447;49.446;8.666;2023-10-31T03:49:00;98936.81;;;10.45;100.00
74895;BME280;63447;49.446;8.666;2023-10-31T03:51:25;98921.25;;;10.34;100.00
74895;BME280;63447;49.446;8.666;2023-10-31T03:53:50;98930.50;;;10.45;100.00
74895;BME280;63447;49.446;8.666;2023-10-31T03:56:18;98928.00;;;10.36;100.00
74895;BME280;63447;49.446;8.666;2023-10-31T03:58:46;98932.28;;;10.34;100.00
74895;BME280;63447;49.446;8.666;2023-10-31T04:01:13;98931.84;;;10.32;100.00
74895;BME280;63447;49.446;8.666;2023-10-31T04:03:43;98924.84;;;10.18;100.00
74895;BME280;63447;49.446;8.666;2023-10-31T04:06:08;98954.25;;;10.30;100.00
74895;BME280;63447;49.446;8.666;2023-10-31T04:08:36;98959.03;;;10.33;100.00
74895;BME280;63447;49.446;8.666;2023-10-31T04:11:06;98950.19;;;10.24;100.00
74895;BME280;63447;49.446;8.666;2023-10-31T04:13:34;98941.94;;;10.24;100.00
74895;BME280;63447;49.446;8.666;2023-10-31T04:16:04;98947.72;;;10.19;100.00
74895;BME280;63447;49.446;8.666;2023-10-31T04:18:29;98947.19;;;10.13;100.00
74895;BME280;63447;49.446;8.666;2023-10-31T04:20:58;98954.69;;;10.13;100.00
74895;BME280;63447;49.446;8.666;2023-10-31T04:23:25;98957.50;;;10.16;100.00
74895;BME280;63447;49.446;8.666;2023-10-31T04:25:51;98961.50;;;10.19;100.00
74895;BME280;63447;49.446;8.666;2023-10-31T04:28:20;98955.53;;;10.17;100.00
74895;BME280;63447;49.446;8.666;2023-10-31T04:30:47;98954.84;;;10.20;100.00
74895;BME280;63447;49.446;8.666;2023-10-31T04:33:12;98957.41;;;10.51;100.00
74895;BME280;63447;49.446;8.666;2023-10-31T04:35:40;98956.00;;;10.38;100.00
74895;BME280;63447;49.446;8.666;2023-10-31T04:38:08;98967.44;;;10.40;100.00
74895;BME280;63447;49.446;8.666;2023-10-31T04:40:35;98962.97;;;10.32;100.00
74895;BME280;63447;49.446;8.666;2023-10-31T04:43:01;98954.41;;;10.37;100.00
74895;BME280;63447;49.446;8.666;2023-10-31T04:45:29;98970.75;;;10.49;100.00
74895;BME280;63447;49.446;8.666;2023-10-31T04:47:54;98975.66;;;10.37;100.00
74895;BME280;63447;49.446;8.666;2023-10-31T04:50:22;98967.16;;;10.26;100.00
74895;BME280;63447;49.446;8.666;2023-10-31T04:52:47;98971.78;;;10.41;100.00
74895;BME280;63447;49.446;8.666;2023-10-31T04:55:17;98974.13;;;10.39;100.00
74895;BME280;63447;49.446;8.666;2023-10-31T04:57:45;98958.47;;;10.24;100.00
74895;BME280;63447;49.446;8.666;2023-10-31T05:00:11;98981.66;;;10.42;100.00
74895;BME280;63447;49.446;8.666;2023-10-31T05:02:44;98968.47;;;10.32;100.00
74895;BME280;63447;49.446;8.666;2023-10-31T05:05:09;98979.94;;;10.34;100.00
74895;BME280;63447;49.446;8.666;2023-10-31T05:07:39;98979.78;;;10.27;100.00
74895;BME280;63447;49.446;8.666;2023-10-31T05:10:05;98980.06;;;10.41;100.00
74895;BME280;63447;49.446;8.666;2023-10-31T05:12:30;98984.72;;;10.37;100.00
74895;BME280;63447;49.446;8.666;2023-10-31T05:15:00;98990.69;;;10.39;100.00
74895;BME280;63447;49.446;8.666;2023-10-31T05:17:25;98978.47;;;10.40;99.63
74895;BME280;63447;49.446;8.666;2023-10-31T05:19:55;98983.34;;;10.28;100.00
74895;BME280;63447;49.446;8.666;2023-10-31T05:22:23;98985.03;;;10.32;100.00
74895;BME280;63447;49.446;8.666;2023-10-31T05:24:50;98987.53;;;10.41;100.00
74895;BME280;63447;49.446;8.666;2023-10-31T05:27:16;98972.41;;;10.31;100.00
74895;BME280;63447;49.446;8.666;2023-10-31T05:29:43;98974.53;;;10.41;100.00
74895;BME280;63447;49.446;8.666;2023-10-31T05:32:13;98980.00;;;10.38;99.27
74895;BME280;63447;49.446;8.666;2023-10-31T05:34:41;98983.84;;;10.33;100.00
74895;BME280;63447;49.446;8.666;2023-10-31T05:37:07;98996.91;;;10.36;99.88
74895;BME280;63447;49.446;8.666;2023-10-31T05:39:34;98988.31;;;10.41;100.00
74895;BME280;63447;49.446;8.666;2023-10-31T05:42:04;98994.16;;;10.36;100.00
74895;BME280;63447;49.446;8.666;2023-10-31T05:44:29;99003.22;;;10.37;100.00
74895;BME280;63447;49.446;8.666;2023-10-31T05:46:57;99005.91;;;10.33;100.00
74895;BME280;63447;49.446;8.666;2023-10-31T05:49:22;99007.44;;;10.31;100.00
74895;BME280;63447;49.446;8.666;2023-10-31T05:51:51;99021.00;;;10.39;100.00
74895;BME280;63447;49.446;8.666;2023-10-31T05:54:17;99029.03;;;10.48;98.68
74895;BME280;63447;49.446;8.666;2023-10-31T05:56:44;99036.69;;;10.35;98.82
74895;BME280;63447;49.446;8.666;2023-10-31T05:59:12;99030.81;;;10.37;99.44
74895;BME280;63447;49.446;8.666;2023-10-31T06:01:43;99051.25;;;10.36;100.00
74895;BME280;63447;49.446;8.666;2023-10-31T06:04:08;99031.00;;;10.28;99.70
74895;BME280;63447;49.446;8.666;2023-10-31T06:06:37;99061.25;;;10.44;99.95
74895;BME280;63447;49.446;8.666;2023-10-31T06:09:06;99048.19;;;10.22;100.00
74895;BME280;63447;49.446;8.666;2023-10-31T06:11:33;99049.59;;;10.15;100.00
74895;BME280;63447;49.446;8.666;2023-10-31T06:13:59;99068.19;;;10.18;100.00
74895;BME280;63447;49.446;8.666;2023-10-31T06:16:26;99052.72;;;10.14;100.00
74895;BME280;63447;49.446;8.666;2023-10-31T06:18:52;99056.34;;;10.18;100.00
74895;BME280;63447;49.446;8.666;2023-10-31T06:21:20;99063.34;;;10.12;100.00
74895;BME280;63447;49.446;8.666;2023-10-31T06:23:47;99071.22;;;10.13;100.00
74895;BME280;63447;49.446;8.666;2023-10-31T06:26:15;99079.47;;;10.13;100.00
74895;BME280;63447;49.446;8.666;2023-10-31T06:28:40;99076.50;;;10.03;100.00
74895;BME280;63447;49.446;8.666;2023-10-31T06:31:06;99027.63;;;9.65;100.00
74895;BME280;63447;49.446;8.666;2023-10-31T06:33:34;99080.69;;;9.97;100.00
74895;BME280;63447;49.446;8.666;2023-10-31T06:36:01;99071.88;;;10.07;100.00
74895;BME280;63447;49.446;8.666;2023-10-31T06:38:26;99082.47;;;10.05;100.00
74895;BME280;63447;49.446;8.666;2023-10-31T06:40:54;99101.75;;;10.05;100.00
74895;BME280;63447;49.446;8.666;2023-10-31T06:43:22;99103.63;;;10.01;100.00
74895;BME280;63447;49.446;8.666;2023-10-31T06:45:47;99097.84;;;10.06;100.00
74895;BME280;63447;49.446;8.666;2023-10-31T06:48:15;99098.03;;;9.97;100.00
74895;BME280;63447;49.446;8.666;2023-10-31T06:50:40;99089.69;;;9.94;100.00
74895;BME280;63447;49.446;8.666;2023-10-31T06:53:05;99099.53;;;9.95;100.00
74895;BME280;63447;49.446;8.666;2023-10-31T06:55:36;99103.63;;;10.01;100.00
74895;BME280;63447;49.446;8.666;2023-10-31T06:58:01;99108.50;;;10.07;100.00
74895;BME280;63447;49.446;8.666;2023-10-31T07:00:27;99112.84;;;10.08;100.00
74895;BME280;63447;49.446;8.666;2023-10-31T07:02:57;99110.88;;;10.25;100.00
74895;BME280;63447;49.446;8.666;2023-10-31T07:05:24;99099.44;;;10.07;100.00
74895;BME280;63447;49.446;8.666;2023-10-31T07:07:52;99125.09;;;10.27;100.00
74895;BME280;63447;49.446;8.666;2023-10-31T07:10:20;99113.56;;;10.21;100.00
74895;BME280;63447;49.446;8.666;2023-10-31T07:12:50;99126.19;;;10.22;100.00
74895;BME280;63447;49.446;8.666;2023-10-31T07:15:15;99119.59;;;10.11;100.00
74895;BME280;63447;49.446;8.666;2023-10-31T07:17:40;99118.72;;;10.07;100.00
74895;BME280;63447;49.446;8.666;2023-10-31T07:20:06;99115.09;;;10.03;100.00
74895;BME280;63447;49.446;8.666;2023-10-31T07:22:34;99123.34;;;10.03;100.00
74895;BME280;63447;49.446;8.666;2023-10-31T07:24:59;99142.09;;;10.13;100.00
74895;BME280;63447;49.446;8.666;2023-10-31T07:27:28;99148.03;;;10.15;100.00
74895;BME280;63447;49.446;8.666;2023-10-31T07:29:53;99148.03;;;10.15;100.00
74895;BME280;63447;49.446;8.666;2023-10-31T07:32:18;99143.69;;;10.30;100.00
74895;BME280;63447;49.446;8.666;2023-10-31T07:34:46;99123.56;;;10.13;100.00
74895;BME280;63447;49.446;8.666;2023-10-31T07:37:14;99168.94;;;10.32;100.00
74895;BME280;63447;49.446;8.666;2023-10-31T07:39:39;99166.72;;;10.22;100.00
74895;BME280;63447;49.446;8.666;2023-10-31T07:42:05;99166.72;;;10.22;100.00
74895;BME280;63447;49.446;8.666;2023-10-31T07:44:32;99164.78;;;10.22;100.00
74895;BME280;63447;49.446;8.666;2023-10-31T07:47:03;99154.34;;;10.31;100.00
74895;BME280;63447;49.446;8.666;2023-10-31T07:49:31;99168.31;;;10.38;100.00
74895;BME280;63447;49.446;8.666;2023-10-31T07:51:56;99169.16;;;10.42;100.00
74895;BME280;63447;49.446;8.666;2023-10-31T07:54:21;99179.38;;;10.42;100.00
74895;BME280;63447;49.446;8.666;2023-10-31T07:56:46;99165.38;;;10.31;100.00
74895;BME280;63447;49.446;8.666;2023-10-31T07:59:15;99186.44;;;10.39;100.00
74895;BME280;63447;49.446;8.666;2023-10-31T08:01:40;99193.53;;;10.40;100.00
74895;BME280;63447;49.446;8.666;2023-10-31T08:04:08;99201.09;;;10.43;100.00
74895;BME280;63447;49.446;8.666;2023-10-31T08:06:33;99203.75;;;10.56;100.00
74895;BME280;63447;49.446;8.666;2023-10-31T08:08:59;99201.44;;;10.42;100.00
74895;BME280;63447;49.446;8.666;2023-10-31T08:11:24;99171.09;;;10.23;100.00
74895;BME280;63447;49.446;8.666;2023-10-31T08:13:50;99204.00;;;10.50;100.00
74895;BME280;63447;49.446;8.666;2023-10-31T08:16:21;99206.34;;;10.48;100.00
74895;BME280;63447;49.446;8.666;2023-10-31T08:18:46;99205.75;;;10.39;100.00
74895;BME280;63447;49.446;8.666;2023-10-31T08:21:12;99204.63;;;10.60;99.89
74895;BME280;63447;49.446;8.666;2023-10-31T08:23:40;99208.69;;;10.66;99.92
74895;BME280;63447;49.446;8.666;2023-10-31T08:26:08;99203.22;;;10.50;98.59
74895;BME280;63447;49.446;8.666;2023-10-31T08:28:35;99198.84;;;10.49;100.00
74895;BME280;63447;49.446;8.666;2023-10-31T08:31:03;99208.53;;;10.59;99.05
74895;BME280;63447;49.446;8.666;2023-10-31T08:33:29;99198.84;;;10.49;98.83
74895;BME280;63447;49.446;8.666;2023-10-31T08:35:54;99218.78;;;10.58;99.27
74895;BME280;63447;49.446;8.666;2023-10-31T08:38:22;99215.75;;;10.63;99.65
74895;BME280;63447;49.446;8.666;2023-10-31T08:40:50;99208.41;;;10.71;98.23
74895;BME280;63447;49.446;8.666;2023-10-31T08:43:20;99236.31;;;10.85;97.79
74895;BME280;63447;49.446;8.666;2023-10-31T08:45:45;99232.84;;;10.88;97.22
74895;BME280;63447;49.446;8.666;2023-10-31T08:48:13;99239.00;;;10.81;95.82
74895;BME280;63447;49.446;8.666;2023-10-31T08:50:41;99245.41;;;11.05;95.23
74895;BME280;63447;49.446;8.666;2023-10-31T08:53:11;99236.84;;;11.10;95.95
74895;BME280;63447;49.446;8.666;2023-10-31T08:55:40;99252.75;;;11.16;95.04
74895;BME280;63447;49.446;8.666;2023-10-31T08:58:12;99262.56;;;11.14;95.86
74895;BME280;63447;49.446;8.666;2023-10-31T09:00:52;99254.41;;;11.02;94.52
74895;BME280;63447;49.446;8.666;2023-10-31T09:03:18;99262.03;;;11.08;94.41
74895;BME280;63447;49.446;8.666;2023-10-31T09:05:43;99263.41;;;10.99;93.87
74895;BME280;63447;49.446;8.666;2023-10-31T09:08:09;99270.59;;;11.22;93.57
74895;BME280;63447;49.446;8.666;2023-10-31T09:10:38;99250.72;;;11.13;93.29
74895;BME280;63447;49.446;8.666;2023-10-31T09:13:03;99269.00;;;11.21;94.15
74895;BME280;63447;49.446;8.666;2023-10-31T09:15:29;99269.53;;;11.27;92.18
74895;BME280;63447;49.446;8.666;2023-10-31T09:17:57;99283.16;;;11.20;93.44
74895;BME280;63447;49.446;8.666;2023-10-31T09:20:24;99248.38;;;10.96;92.75
74895;BME280;63447;49.446;8.666;2023-10-31T09:22:49;99289.16;;;11.41;92.95
74895;BME280;63447;49.446;8.666;2023-10-31T09:25:20;99279.72;;;11.42;91.77
74895;BME280;63447;49.446;8.666;2023-10-31T09:27:52;99280.00;;;11.37;92.73
74895;BME280;63447;49.446;8.666;2023-10-31T09:30:20;99292.13;;;11.33;91.45
74895;BME280;63447;49.446;8.666;2023-10-31T09:32:48;99282.31;;;11.54;89.65
74895;BME280;63447;49.446;8.666;2023-10-31T09:35:14;99282.19;;;11.70;90.03
74895;BME280;63447;49.446;8.666;2023-10-31T09:37:44;99283.09;;;11.94;88.44
74895;BME280;63447;49.446;8.666;2023-10-31T09:40:13;99279.47;;;12.12;88.57
74895;BME280;63447;49.446;8.666;2023-10-31T09:42:41;99275.84;;;12.57;86.65
74895;BME280;63447;49.446;8.666;2023-10-31T09:45:06;99268.91;;;13.23;84.25
74895;BME280;63447;49.446;8.666;2023-10-31T09:47:34;99263.00;;;13.29;81.28
74895;BME280;63447;49.446;8.666;2023-10-31T09:50:00;99275.59;;;13.93;79.77
74895;BME280;63447;49.446;8.666;2023-10-31T09:52:27;99250.00;;;14.10;76.18
74895;BME280;63447;49.446;8.666;2023-10-31T09:54:56;99278.06;;;14.42;74.18
74895;BME280;63447;49.446;8.666;2023-10-31T09:57:22;99263.66;;;14.33;73.06
74895;BME280;63447;49.446;8.666;2023-10-31T09:59:53;99286.09;;;14.14;nan
74895;BME280;63447;49.446;8.666;2023-10-31T10:02:22;99291.69;;;14.17;74.11
74895;BME280;63447;49.446;8.666;2023-10-31T10:04:48;99265.09;;;14.13;72.26
74895;BME280;63447;49.446;8.666;2023-10-31T10:07:17;99280.03;;;13.98;74.49
74895;BME280;63447;49.446;8.666;2023-10-31T10:09:46;99281.06;;;13.86;74.47
74895;BME280;63447;49.446;8.666;2023-10-31T10:12:13;99287.47;;;13.90;76.03
74895;BME280;63447;49.446;8.666;2023-10-31T10:14:44;99287.19;;;13.65;73.76
74895;BME280;63447;49.446;8.666;2023-10-31T10:17:18;99276.16;;;13.35;75.60
74895;BME280;63447;49.446;8.666;2023-10-31T10:19:47;99278.44;;;13.30;77.99
74895;BME280;63447;49.446;8.666;2023-10-31T10:22:13;99267.38;;;13.30;77.34
74895;BME280;63447;49.446;8.666;2023-10-31T10:24:42;99276.41;;;13.23;77.31
74895;BME280;63447;49.446;8.666;2023-10-31T10:27:10;99277.41;;;13.11;76.89
74895;BME280;63447;49.446;8.666;2023-10-31T10:29:41;99280.91;;;13.08;75.66
74895;BME280;63447;49.446;8.666;2023-10-31T10:32:11;99270.25;;;13.10;78.22
74895;BME280;63447;49.446;8.666;2023-10-31T10:34:39;99269.50;;;13.13;78.18
74895;BME280;63447;49.446;8.666;2023-10-31T10:37:09;99271.72;;;13.31;77.56
74895;BME280;63447;49.446;8.666;2023-10-31T10:39:36;99277.31;;;13.34;76.91
74895;BME280;63447;49.446;8.666;2023-10-31T10:42:09;99272.59;;;13.35;76.46
74895;BME280;63447;49.446;8.666;2023-10-31T10:44:40;99271.72;;;13.31;76.67
74895;BME280;63447;49.446;8.666;2023-10-31T10:47:12;99274.56;;;13.34;75.91
74895;BME280;63447;49.446;8.666;2023-10-31T10:49:41;99278.72;;;13.51;75.90
74895;BME280;63447;49.446;8.666;2023-10-31T10:52:23;99273.56;;;13.53;75.38
74895;BME280;63447;49.446;8.666;2023-10-31T11:00:05;99276.53;;;13.67;74.95
74895;BME280;63447;49.446;8.666;2023-10-31T11:02:39;99283.28;;;14.10;74.08
74895;BME280;63447;49.446;8.666;2023-10-31T11:05:05;99276.00;;;13.91;71.76
74895;BME280;63447;49.446;8.666;2023-10-31T11:07:34;99281.34;;;13.74;70.70
74895;BME280;63447;49.446;8.666;2023-10-31T11:09:59;99284.34;;;13.58;70.23
74895;BME280;63447;49.446;8.666;2023-10-31T11:12:31;99284.28;;;13.54;70.87
74895;BME280;63447;49.446;8.666;2023-10-31T11:15:01;99277.75;;;13.36;71.35
74895;BME280;63447;49.446;8.666;2023-10-31T11:17:31;99280.59;;;13.43;71.84
74895;BME280;63447;49.446;8.666;2023-10-31T11:19:57;99267.47;;;13.70;72.07
74895;BME280;63447;49.446;8.666;2023-10-31T11:22:23;99269.88;;;13.75;70.26
74895;BME280;63447;49.446;8.666;2023-10-31T11:24:52;99290.16;;;13.83;70.90
74895;BME280;63447;49.446;8.666;2023-10-31T11:27:18;99267.91;;;13.76;70.60
74895;BME280;63447;49.446;8.666;2023-10-31T11:29:46;99272.28;;;13.80;69.81
74895;BME280;63447;49.446;8.666;2023-10-31T11:32:17;99291.28;;;14.15;70.78
74895;BME280;63447;49.446;8.666;2023-10-31T11:34:42;99284.19;;;14.21;70.52
74895;BME280;63447;49.446;8.666;2023-10-31T11:37:26;99292.84;;;14.53;70.36
74895;BME280;63447;49.446;8.666;2023-10-31T11:42:40;99276.97;;;15.19;65.53
74895;BME280;63447;49.446;8.666;2023-10-31T11:45:11;99298.19;;;14.87;66.85
74895;BME280;63447;49.446;8.666;2023-10-31T11:47:51;99304.53;;;15.53;65.29
74895;BME280;63447;49.446;8.666;2023-10-31T11:50:19;99286.84;;;16.64;60.68
74895;BME280;63447;49.446;8.666;2023-10-31T11:52:44;99278.88;;;16.84;59.45
74895;BME280;63447;49.446;8.666;2023-10-31T11:55:11;99317.88;;;16.48;61.71
74895;BME280;63447;49.446;8.666;2023-10-31T11:57:39;99308.28;;;16.03;60.41
74895;BME280;63447;49.446;8.666;2023-10-31T12:00:06;99310.13;;;15.64;63.28
74895;BME280;63447;49.446;8.666;2023-10-31T12:02:37;99299.91;;;15.02;65.68
74895;BME280;63447;49.446;8.666;2023-10-31T12:05:12;99321.44;;;15.19;66.35
74895;BME280;63447;49.446;8.666;2023-10-31T12:07:43;99295.16;;;15.06;64.37
74895;BME280;63447;49.446;8.666;2023-10-31T12:10:20;99318.69;;;16.67;59.50
74895;BME280;63447;49.446;8.666;2023-10-31T12:12:47;99314.84;;;17.76;56.84
74895;BME280;63447;49.446;8.666;2023-10-31T12:15:15;99319.72;;;17.47;57.15
74895;BME280;63447;49.446;8.666;2023-10-31T12:17:42;99321.81;;;18.16;54.82
74895;BME280;63447;49.446;8.666;2023-10-31T12:20:09;99313.25;;;17.72;54.20
74895;BME280;63447;49.446;8.666;2023-10-31T12:22:37;99319.44;;;17.06;56.84
74895;BME280;63447;49.446;8.666;2023-10-31T12:25:07;99326.56;;;17.28;56.48
74895;BME280;63447;49.446;8.666;2023-10-31T12:30:08;99286.78;;;15.89;61.33
74895;BME280;63447;49.446;8.666;2023-10-31T12:32:34;99330.09;;;15.83;62.73
74895;BME280;63447;49.446;8.666;2023-10-31T12:35:03;99322.88;;;15.72;63.72
74895;BME280;63447;49.446;8.666;2023-10-31T12:37:28;99323.25;;;15.56;64.01
74895;BME280;63447;49.446;8.666;2023-10-31T12:39:57;99321.16;;;15.42;65.66
74895;BME280;63447;49.446;8.666;2023-10-31T12:42:23;99308.81;;;15.33;65.38
74895;BME280;63447;49.446;8.666;2023-10-31T12:44:54;99317.06;;;16.34;63.91
74895;BME280;63447;49.446;8.666;2023-10-31T12:47:23;99312.69;;;16.29;63.40
74895;BME280;63447;49.446;8.666;2023-10-31T12:50:08;99308.06;;;17.77;57.85
74895;BME280;63447;49.446;8.666;2023-10-31T12:53:05;99320.38;;;17.87;56.87
74895;BME280;63447;49.446;8.666;2023-10-31T12:55:41;99322.97;;;17.35;59.30
74895;BME280;63447;49.446;8.666;2023-10-31T12:58:20;99319.44;;;20.40;51.30
74895;BME280;63447;49.446;8.666;2023-10-31T13:00:45;99335.28;;;21.44;45.11
74895;BME280;63447;49.446;8.666;2023-10-31T13:03:11;99327.72;;;21.60;44.94
74895;BME280;63447;49.446;8.666;2023-10-31T13:05:45;99328.34;;;19.74;49.54
74895;BME280;63447;49.446;8.666;2023-10-31T13:08:14;99331.78;;;16.98;55.87